createdAt,value
2018-12-06T00:00:29.616Z,97553.30
2018-12-06T00:02:58.525Z,97561.56
2018-12-06T00:05:27.428Z,97569.91
2018-12-06T00:08:07.542Z,97560.96
2018-12-06T00:10:36.447Z,97541.55
2018-12-06T00:13:05.364Z,97541.16
2018-12-06T00:15:34.276Z,97532.63
2018-12-06T00:18:03.175Z,97520.45
2018-12-06T00:20:32.513Z,97510.23
2018-12-06T00:23:01.738Z,97523.28
2018-12-06T00:25:30.666Z,97527.52
2018-12-06T00:27:59.588Z,97530.25
2018-12-06T00:30:37.246Z,97522.94
2018-12-06T00:33:05.884Z,97518.69
2018-12-06T00:35:34.776Z,97519.37
2018-12-06T00:38:04.099Z,97525.34
2018-12-06T00:40:33.425Z,97529.22
2018-12-06T00:43:02.291Z,97535.59
2018-12-06T00:45:31.185Z,97533.44
2018-12-06T00:48:00.344Z,97526.63
2018-12-06T00:50:29.267Z,97531.33
2018-12-06T00:52:58.172Z,97534.31
2018-12-06T00:55:27.055Z,97543.83
2018-12-06T00:57:55.921Z,97564.19
2018-12-06T01:00:24.894Z,97560.63
2018-12-06T01:02:53.746Z,97574.00
2018-12-06T01:05:23.258Z,97584.02
2018-12-06T01:07:52.110Z,97590.67
2018-12-06T01:10:21.400Z,97592.75
2018-12-06T01:12:50.715Z,97576.48
2018-12-06T01:15:19.592Z,97572.38
2018-12-06T01:17:48.502Z,97568.92
2018-12-06T01:20:17.385Z,97555.81
2018-12-06T01:22:46.467Z,97565.27
2018-12-06T01:25:15.608Z,97560.09
2018-12-06T01:27:44.458Z,97554.37
2018-12-06T01:30:13.768Z,97554.14
2018-12-06T01:32:42.614Z,97558.95
2018-12-06T01:35:11.459Z,97555.12
2018-12-06T01:37:40.317Z,97559.12
2018-12-06T01:40:09.580Z,97571.21
2018-12-06T01:42:38.433Z,97574.74
2018-12-06T01:45:07.870Z,97582.84
2018-12-06T01:47:36.743Z,97587.41
2018-12-06T01:50:06.229Z,97588.47
2018-12-06T01:52:35.111Z,97578.80
2018-12-06T01:55:04.410Z,97573.86
2018-12-06T01:57:33.276Z,97578.09
2018-12-06T02:00:02.099Z,97566.30
2018-12-06T02:02:30.955Z,97569.56
2018-12-06T02:04:59.895Z,97566.30
2018-12-06T02:07:28.754Z,97562.94
2018-12-06T02:09:57.640Z,97563.58
2018-12-06T02:12:26.597Z,97558.44
2018-12-06T02:14:55.563Z,97558.54
2018-12-06T02:17:24.430Z,97546.52
2018-12-06T02:19:53.516Z,97542.52
2018-12-06T02:22:22.417Z,97541.20
2018-12-06T02:24:51.303Z,97542.72
2018-12-06T02:27:20.491Z,97534.28
2018-12-06T02:29:54.269Z,97532.91
2018-12-06T02:32:23.972Z,97538.89
2018-12-06T02:34:52.826Z,97534.98
2018-12-06T02:37:22.099Z,97537.78
2018-12-06T02:39:50.965Z,97540.23
2018-12-06T02:42:19.825Z,97531.70
2018-12-06T02:44:48.938Z,97535.73
2018-12-06T02:47:18.079Z,97525.31
2018-12-06T02:49:46.955Z,97523.47
2018-12-06T02:52:16.089Z,97523.27
2018-12-06T02:54:44.935Z,97519.77
2018-12-06T02:57:13.743Z,97522.83
2018-12-06T02:59:42.577Z,97511.95
2018-12-06T03:02:11.636Z,97517.38
2018-12-06T03:04:40.474Z,97508.58
2018-12-06T03:07:09.970Z,97503.52
2018-12-06T03:09:39.446Z,97493.56
2018-12-06T03:12:08.318Z,97498.77
2018-12-06T03:14:37.399Z,97487.55
2018-12-06T03:17:06.238Z,97484.30
2018-12-06T03:19:35.495Z,97461.93
2018-12-06T03:22:04.365Z,97436.03
2018-12-06T03:24:33.213Z,97399.75
2018-12-06T03:27:02.315Z,97375.31
2018-12-06T03:29:31.202Z,97383.28
2018-12-06T03:32:00.293Z,97389.42
2018-12-06T03:34:29.163Z,97408.61
2018-12-06T03:36:58.464Z,97422.41
2018-12-06T03:39:27.317Z,97455.39
2018-12-06T03:41:56.165Z,97456.32
2018-12-06T03:44:24.997Z,97480.70
2018-12-06T03:46:53.947Z,97489.08
2018-12-06T03:49:23.105Z,97498.77
2018-12-06T03:51:52.622Z,97494.51
2018-12-06T03:54:21.502Z,97510.59
2018-12-06T03:56:50.748Z,97503.04
2018-12-06T03:59:19.631Z,97505.86
2018-12-06T04:01:48.479Z,97508.55
2018-12-06T04:04:17.352Z,97514.40
2018-12-06T04:06:46.179Z,97505.59
2018-12-06T04:09:15.034Z,97503.08
2018-12-06T04:11:43.892Z,97489.67
2018-12-06T04:14:12.926Z,97489.14
2018-12-06T04:16:41.776Z,97488.83
2018-12-06T04:19:10.887Z,97490.95
2018-12-06T04:21:39.961Z,97490.27
2018-12-06T04:24:08.789Z,97488.80
2018-12-06T04:26:37.632Z,97487.71
2018-12-06T04:29:06.922Z,97480.56
2018-12-06T04:31:37.541Z,97476.33
2018-12-06T04:34:06.413Z,97471.20
2018-12-06T04:36:35.528Z,97465.27
2018-12-06T04:39:07.313Z,97475.72
2018-12-06T04:41:36.215Z,97470.94
2018-12-06T04:44:05.077Z,97468.67
2018-12-06T04:46:33.928Z,97474.86
2018-12-06T04:49:02.785Z,97477.48
2018-12-06T04:51:32.365Z,97481.44
2018-12-06T04:54:01.254Z,97485.06
2018-12-06T04:56:30.121Z,97477.11
2018-12-06T04:58:58.985Z,97480.30
2018-12-06T05:01:27.855Z,97492.25
2018-12-06T05:03:56.745Z,97495.45
2018-12-06T05:06:25.638Z,97487.69
2018-12-06T05:08:54.500Z,97493.44
2018-12-06T05:11:23.345Z,97494.48
2018-12-06T05:13:52.236Z,97494.00
2018-12-06T05:16:21.509Z,97490.75
2018-12-06T05:18:50.618Z,97489.98
2018-12-06T05:21:19.712Z,97490.18
2018-12-06T05:23:48.587Z,97485.47
2018-12-06T05:26:17.679Z,97483.33
2018-12-06T05:28:46.551Z,97487.52
2018-12-06T05:31:15.410Z,97483.33
2018-12-06T05:33:44.325Z,97473.98
2018-12-06T05:36:13.165Z,97460.58
2018-12-06T05:38:42.012Z,97456.08
2018-12-06T05:41:10.851Z,97463.20
2018-12-06T05:43:39.687Z,97450.67
2018-12-06T05:46:08.884Z,97459.75
2018-12-06T05:48:37.727Z,97476.34
2018-12-06T05:51:07.392Z,97473.98
2018-12-06T05:53:36.233Z,97472.81
2018-12-06T05:56:05.482Z,97479.09
2018-12-06T05:58:34.345Z,97475.03
2018-12-06T06:01:03.177Z,97481.88
2018-12-06T06:03:32.084Z,97490.48
2018-12-06T06:06:01.038Z,97487.96
2018-12-06T06:08:29.869Z,97489.73
2018-12-06T06:10:58.716Z,97487.86
2018-12-06T06:13:27.963Z,97485.24
2018-12-06T06:15:56.868Z,97488.56
2018-12-06T06:18:25.755Z,97483.53
2018-12-06T06:20:54.629Z,97488.30
2018-12-06T06:23:23.484Z,97499.28
2018-12-06T06:25:52.425Z,97498.84
2018-12-06T06:28:21.360Z,97511.95
2018-12-06T06:30:50.684Z,97513.25
2018-12-06T06:33:19.780Z,97522.86
2018-12-06T06:35:48.912Z,97516.70
2018-12-06T06:38:18.031Z,97533.33
2018-12-06T06:40:47.186Z,97519.77
2018-12-06T06:43:16.164Z,97525.11
2018-12-06T06:45:45.161Z,97527.25
2018-12-06T06:48:14.303Z,97512.92
2018-12-06T06:50:43.195Z,97506.94
2018-12-06T06:53:12.044Z,97503.88
2018-12-06T06:55:40.939Z,97497.53
2018-12-06T06:58:09.845Z,97488.76
2018-12-06T07:00:38.737Z,97500.05
2018-12-06T07:03:08.075Z,97494.75
2018-12-06T07:05:37.009Z,97499.52
2018-12-06T07:08:41.129Z,97503.17
2018-12-06T07:11:10.000Z,97504.28
2018-12-06T07:13:38.917Z,97507.84
2018-12-06T07:16:07.833Z,97497.36
2018-12-06T07:18:36.737Z,97507.27
2018-12-06T07:21:06.118Z,97504.86
2018-12-06T07:23:35.844Z,97505.97
2018-12-06T07:26:04.728Z,97507.07
2018-12-06T07:28:33.607Z,97515.47
2018-12-06T07:31:02.497Z,97512.48
2018-12-06T07:33:31.371Z,97520.31
2018-12-06T07:36:00.271Z,97513.28
2018-12-06T07:38:29.508Z,97521.62
2018-12-06T07:40:58.659Z,97521.14
2018-12-06T07:43:27.624Z,97517.02
2018-12-06T07:46:01.842Z,97525.11
2018-12-06T07:48:30.755Z,97532.02
2018-12-06T07:50:59.661Z,97536.20
2018-12-06T07:53:28.568Z,97537.14
2018-12-06T07:55:58.056Z,97544.53
2018-12-06T07:58:26.959Z,97554.64
2018-12-06T08:00:55.853Z,97551.38
2018-12-06T08:03:25.126Z,97550.44
2018-12-06T08:05:53.991Z,97556.89
2018-12-06T08:08:22.902Z,97551.34
2018-12-06T08:10:51.779Z,97559.18
2018-12-06T08:13:21.279Z,97563.98
2018-12-06T08:15:50.119Z,97558.54
2018-12-06T08:18:19.395Z,97562.47
2018-12-06T08:20:48.243Z,97567.04
2018-12-06T08:23:17.099Z,97583.41
2018-12-06T08:25:46.077Z,97585.38
2018-12-06T08:28:15.589Z,97580.31
2018-12-06T08:30:44.573Z,97585.75
2018-12-06T08:33:13.662Z,97581.05
2018-12-06T08:35:42.937Z,97585.38
2018-12-06T08:38:12.385Z,97585.58
2018-12-06T08:40:41.475Z,97591.36
2018-12-06T08:43:10.359Z,97588.72
2018-12-06T08:45:44.059Z,97595.37
2018-12-06T08:48:14.058Z,97594.06
2018-12-06T08:50:42.898Z,97587.84
2018-12-06T08:53:11.735Z,97596.45
2018-12-06T08:55:40.639Z,97596.05
2018-12-06T08:58:09.512Z,97594.30
2018-12-06T09:00:39.116Z,97594.37
2018-12-06T09:03:07.975Z,97601.05
2018-12-06T09:05:36.907Z,97596.72
2018-12-06T09:08:06.544Z,97598.44
2018-12-06T09:10:35.441Z,97600.95
2018-12-06T09:13:04.746Z,97604.48
2018-12-06T09:15:33.670Z,97610.73
2018-12-06T09:18:04.409Z,97612.62
2018-12-06T09:20:33.254Z,97610.47
2018-12-06T09:23:02.569Z,97614.80
2018-12-06T09:25:31.449Z,97615.24
2018-12-06T09:28:00.332Z,97624.31
2018-12-06T09:30:29.250Z,97627.51
2018-12-06T09:32:58.139Z,97623.78
2018-12-06T09:35:27.449Z,97626.57
2018-12-06T09:37:56.559Z,97623.11
2018-12-06T09:40:25.486Z,97625.47
2018-12-06T09:42:54.408Z,97632.89
2018-12-06T09:45:23.293Z,97635.14
2018-12-06T09:47:52.592Z,97631.68
2018-12-06T09:50:21.456Z,97630.47
2018-12-06T09:52:50.362Z,97625.59
2018-12-06T09:55:19.226Z,97621.94
2018-12-06T09:57:48.098Z,97618.84
2018-12-06T10:00:17.908Z,97620.63
2018-12-06T10:02:46.780Z,97628.76
2018-12-06T10:05:16.075Z,97633.73
2018-12-06T10:07:44.952Z,97633.63
2018-12-06T10:10:13.884Z,97643.45
2018-12-06T10:13:09.465Z,97644.39
2018-12-06T10:15:39.164Z,97645.44
2018-12-06T10:18:08.467Z,97647.11
2018-12-06T10:20:37.332Z,97650.48
2018-12-06T10:23:06.196Z,97661.16
2018-12-06T10:25:35.289Z,97656.19
2018-12-06T10:28:04.142Z,97642.54
2018-12-06T10:30:33.037Z,97638.51
2018-12-06T10:33:02.139Z,97640.09
2018-12-06T10:35:31.233Z,97633.06
2018-12-06T10:38:00.072Z,97644.30
2018-12-06T10:40:29.194Z,97640.98
2018-12-06T10:42:58.056Z,97636.89
2018-12-06T10:45:26.911Z,97629.03
2018-12-06T10:47:56.333Z,97634.20
2018-12-06T10:50:25.923Z,97632.66
2018-12-06T10:52:54.771Z,97634.84
2018-12-06T10:55:24.072Z,97632.89
2018-12-06T10:57:53.045Z,97635.52
2018-12-06T11:00:27.491Z,97635.59
2018-12-06T11:03:01.690Z,97641.00
2018-12-06T11:05:30.715Z,97645.77
2018-12-06T11:07:59.593Z,97641.57
2018-12-06T11:10:28.468Z,97647.48
2018-12-06T11:12:57.384Z,97648.50
2018-12-06T11:15:26.288Z,97651.96
2018-12-06T11:17:55.182Z,97656.27
2018-12-06T11:20:24.179Z,97652.13
2018-12-06T11:22:53.041Z,97638.48
2018-12-06T11:25:21.942Z,97641.16
2018-12-06T11:27:50.799Z,97643.89
2018-12-06T11:30:19.640Z,97641.06
2018-12-06T11:32:48.507Z,97629.36
2018-12-06T11:35:17.408Z,97625.73
2018-12-06T11:37:46.309Z,97620.38
2018-12-06T11:40:15.408Z,97606.98
2018-12-06T11:42:44.379Z,97605.71
2018-12-06T11:45:13.424Z,97602.55
2018-12-06T11:47:42.317Z,97586.83
2018-12-06T11:50:11.463Z,97597.63
2018-12-06T11:52:40.333Z,97601.88
2018-12-06T11:55:09.679Z,97589.97
2018-12-06T11:57:38.561Z,97581.47
2018-12-06T12:00:08.079Z,97584.30
2018-12-06T12:02:36.955Z,97583.88
2018-12-06T12:05:07.032Z,97593.86
2018-12-06T12:07:35.875Z,97593.13
2018-12-06T12:10:06.464Z,97588.51
2018-12-06T12:12:35.331Z,97587.62
2018-12-06T12:15:05.326Z,97585.57
2018-12-06T12:17:34.220Z,97589.88
2018-12-06T12:20:03.083Z,97595.28
2018-12-06T12:22:32.013Z,97584.78
2018-12-06T12:25:01.071Z,97578.17
2018-12-06T12:27:29.960Z,97581.45
2018-12-06T12:29:58.857Z,97582.55
2018-12-06T12:32:27.743Z,97585.37
2018-12-06T12:34:56.609Z,97594.86
2018-12-06T12:37:25.531Z,97598.67
2018-12-06T12:39:54.413Z,97601.20
2018-12-06T12:42:23.251Z,97598.56
2018-12-06T12:44:52.113Z,97605.60
2018-12-06T12:47:21.008Z,97602.13
2018-12-06T12:49:49.860Z,97599.19
2018-12-06T12:52:18.704Z,97592.63
2018-12-06T12:54:47.569Z,97604.78
2018-12-06T12:57:16.447Z,97599.66
2018-12-06T12:59:45.573Z,97604.55
2018-12-06T13:02:14.481Z,97594.52
2018-12-06T13:04:43.383Z,97593.58
2018-12-06T13:07:13.647Z,97593.94
2018-12-06T13:09:42.752Z,97587.71
2018-12-06T13:12:11.823Z,97590.13
2018-12-06T13:14:40.924Z,97586.19
2018-12-06T13:17:09.829Z,97590.75
2018-12-06T13:19:38.908Z,97584.23
2018-12-06T13:22:08.253Z,97581.81
2018-12-06T13:24:37.493Z,97581.34
2018-12-06T13:27:06.943Z,97570.05
2018-12-06T13:29:36.273Z,97591.16
2018-12-06T13:32:05.331Z,97594.27
2018-12-06T13:34:34.215Z,97602.03
2018-12-06T13:37:03.321Z,97602.83
2018-12-06T13:39:32.411Z,97607.23
2018-12-06T13:42:01.272Z,97600.72
2018-12-06T13:44:30.206Z,97588.69
2018-12-06T13:46:59.074Z,97595.47
2018-12-06T13:49:27.986Z,97593.57
2018-12-06T13:51:56.862Z,97602.08
2018-12-06T13:54:27.144Z,97596.41
2018-12-06T13:56:56.318Z,97597.36
2018-12-06T13:59:25.182Z,97600.39
2018-12-06T14:01:54.051Z,97596.93
2018-12-06T14:04:23.210Z,97594.78
2018-12-06T14:06:52.080Z,97595.98
2018-12-06T14:09:20.937Z,97605.39
2018-12-06T14:11:49.768Z,97608.17
2018-12-06T14:14:18.651Z,97607.55
2018-12-06T14:16:47.519Z,97612.21
2018-12-06T14:19:16.359Z,97614.95
2018-12-06T14:21:45.265Z,97614.95
2018-12-06T14:24:14.168Z,97614.47
2018-12-06T14:26:43.391Z,97610.17
2018-12-06T14:29:12.271Z,97595.14
2018-12-06T14:31:41.158Z,97601.02
2018-12-06T14:34:10.063Z,97618.67
2018-12-06T14:36:38.951Z,97599.81
2018-12-06T14:39:09.233Z,97605.75
2018-12-06T14:41:38.060Z,97607.80
2018-12-06T14:44:07.392Z,97609.95
2018-12-06T14:46:36.263Z,97612.11
2018-12-06T14:49:05.392Z,97618.56
2018-12-06T14:51:34.441Z,97616.41
2018-12-06T14:54:06.419Z,97621.45
2018-12-06T14:56:35.289Z,97619.77
2018-12-06T14:59:04.594Z,97630.75
2018-12-06T15:01:33.685Z,97637.00
2018-12-06T15:04:02.582Z,97643.20
2018-12-06T15:06:37.569Z,97644.04
2018-12-06T15:09:02.852Z,97652.76
2018-12-06T15:11:31.663Z,97648.61
2018-12-06T15:14:00.611Z,97652.55
2018-12-06T15:16:29.490Z,97652.91
2018-12-06T15:18:58.336Z,97650.55
2018-12-06T15:21:27.224Z,97649.34
2018-12-06T15:23:56.139Z,97649.34
2018-12-06T15:26:25.335Z,97653.38
2018-12-06T15:28:54.186Z,97660.58
2018-12-06T15:31:23.056Z,97655.80
2018-12-06T15:33:51.968Z,97653.86
2018-12-06T15:36:20.825Z,97655.06
2018-12-06T15:38:50.089Z,97648.61
2018-12-06T15:41:18.928Z,97652.91
2018-12-06T15:43:50.782Z,97650.44
2018-12-06T15:46:20.083Z,97646.97
2018-12-06T15:48:49.033Z,97646.71
2018-12-06T15:51:17.907Z,97645.40
2018-12-06T15:53:46.989Z,97654.59
2018-12-06T15:56:15.838Z,97655.33
2018-12-06T15:58:44.747Z,97659.52
2018-12-06T16:01:14.060Z,97657.59
2018-12-06T16:03:43.032Z,97660.47
2018-12-06T16:06:11.895Z,97653.86
2018-12-06T16:08:40.940Z,97656.27
2018-12-06T16:11:09.812Z,97659.48
2018-12-06T16:13:39.494Z,97652.65
2018-12-06T16:16:09.423Z,97643.93
2018-12-06T16:18:38.330Z,97642.52
2018-12-06T16:21:07.237Z,97641.09
2018-12-06T16:23:36.185Z,97644.19
2018-12-06T16:26:05.650Z,97651.48
2018-12-06T16:28:34.586Z,97663.10
2018-12-06T16:31:03.493Z,97664.99
2018-12-06T16:33:32.978Z,97667.63
2018-12-06T16:36:02.101Z,97667.60
2018-12-06T16:38:31.403Z,97669.13
2018-12-06T16:41:00.318Z,97674.60
2018-12-06T16:43:29.236Z,97670.30
2018-12-06T16:45:58.189Z,97682.01
2018-12-06T16:48:27.200Z,97673.66
2018-12-06T16:50:56.081Z,97676.97
2018-12-06T16:53:25.047Z,97667.66
2018-12-06T16:55:54.092Z,97672.45
2018-12-06T16:58:23.465Z,97672.55
2018-12-06T17:00:52.364Z,97670.30
2018-12-06T17:03:21.255Z,97675.81
2018-12-06T17:05:50.127Z,97675.08
2018-12-06T17:08:19.016Z,97677.23
2018-12-06T17:10:47.927Z,97674.70
2018-12-06T17:13:17.106Z,97674.97
2018-12-06T17:15:46.404Z,97669.04
2018-12-06T17:18:15.308Z,97678.65
2018-12-06T17:20:44.186Z,97674.60
2018-12-06T17:23:13.075Z,97684.16
2018-12-06T17:25:41.960Z,97685.59
2018-12-06T17:28:10.864Z,97680.70
2018-12-06T17:30:39.749Z,97690.26
2018-12-06T17:33:08.949Z,97697.77
2018-12-06T17:35:38.074Z,97696.61
2018-12-06T17:38:06.992Z,97696.94
2018-12-06T17:40:35.943Z,97696.72
2018-12-06T17:43:04.962Z,97701.39
2018-12-06T17:45:34.131Z,97698.66
2018-12-06T17:48:03.017Z,97701.39
2018-12-06T17:50:32.381Z,97708.17
2018-12-06T17:53:01.306Z,97705.70
2018-12-06T17:55:30.189Z,97705.70
2018-12-06T17:57:59.076Z,97705.81
2018-12-06T18:00:27.965Z,97705.34
2018-12-06T18:02:57.164Z,97716.95
2018-12-06T18:05:26.067Z,97714.80
2018-12-06T18:07:55.304Z,97724.09
2018-12-06T18:10:24.836Z,97716.80
2018-12-06T18:12:53.705Z,97722.05
2018-12-06T18:15:23.817Z,97731.98
2018-12-06T18:17:52.769Z,97735.55
2018-12-06T18:20:21.663Z,97726.09
2018-12-06T18:22:51.225Z,97724.31
2018-12-06T18:25:20.071Z,97722.31
2018-12-06T18:27:48.949Z,97715.84
2018-12-06T18:30:18.863Z,97717.53
2018-12-06T18:32:47.738Z,97715.27
2018-12-06T18:35:16.575Z,97712.80
2018-12-06T18:37:45.434Z,97722.83
2018-12-06T18:40:14.708Z,97727.25
2018-12-06T18:42:43.743Z,97718.52
2018-12-06T18:45:13.024Z,97722.20
2018-12-06T18:47:41.926Z,97716.11
2018-12-06T18:50:11.219Z,97714.69
2018-12-06T18:52:40.105Z,97708.64
2018-12-06T18:55:08.975Z,97714.95
2018-12-06T18:57:37.888Z,97712.80
2018-12-06T19:00:09.271Z,97715.31
2018-12-06T19:02:38.305Z,97719.94
2018-12-06T19:05:07.787Z,97725.46
2018-12-06T19:07:36.643Z,97719.84
2018-12-06T19:10:06.260Z,97720.42
2018-12-06T19:12:35.131Z,97716.38
2018-12-06T19:15:05.059Z,97706.33
2018-12-06T19:17:34.136Z,97705.13
2018-12-06T19:20:03.014Z,97709.17
2018-12-06T19:22:31.867Z,97713.74
2018-12-06T19:25:01.137Z,97717.10
2018-12-06T19:27:30.222Z,97713.53
2018-12-06T19:29:59.131Z,97717.20
2018-12-06T19:32:28.190Z,97711.59
2018-12-06T19:34:57.398Z,97707.28
2018-12-06T19:37:26.274Z,97706.44
2018-12-06T19:39:55.167Z,97707.02
2018-12-06T19:42:24.026Z,97706.70
2018-12-06T19:44:52.922Z,97702.75
2018-12-06T19:47:22.185Z,97705.86
2018-12-06T19:49:51.163Z,97702.39
2018-12-06T19:52:20.419Z,97698.34
2018-12-06T19:54:49.357Z,97693.08
2018-12-06T19:57:18.255Z,97695.71
2018-12-06T19:59:47.132Z,97693.92
2018-12-06T20:02:16.009Z,97694.66
2018-12-06T20:04:44.871Z,97703.02
2018-12-06T20:07:14.200Z,97700.49
2018-12-06T20:09:43.416Z,97695.82
2018-12-06T20:12:12.719Z,97696.55
2018-12-06T20:14:41.806Z,97701.44
2018-12-06T20:17:10.704Z,97701.13
2018-12-06T20:19:39.603Z,97704.33
2018-12-06T20:22:08.486Z,97707.69
2018-12-06T20:24:37.358Z,97706.48
2018-12-06T20:27:06.713Z,97700.75
2018-12-06T20:29:35.911Z,97698.13
2018-12-06T20:32:05.182Z,97694.19
2018-12-06T20:34:34.048Z,97688.56
2018-12-06T20:37:02.919Z,97683.30
2018-12-06T20:39:31.779Z,97679.47
2018-12-06T20:42:00.637Z,97682.94
2018-12-06T20:44:29.514Z,97680.57
2018-12-06T20:46:58.371Z,97681.41
2018-12-06T20:49:27.226Z,97676.16
2018-12-06T20:51:56.099Z,97684.19
2018-12-06T20:54:24.960Z,97680.14
2018-12-06T20:56:55.139Z,97672.95
2018-12-06T20:59:24.293Z,97683.09
2018-12-06T21:01:54.900Z,97678.56
2018-12-06T21:04:24.060Z,97665.42
2018-12-06T21:06:52.932Z,97673.53
2018-12-06T21:09:21.808Z,97669.11
2018-12-06T21:11:50.725Z,97667.69
2018-12-06T21:14:22.256Z,97664.22
2018-12-06T21:16:50.552Z,97656.34
2018-12-06T21:19:19.621Z,97652.87
2018-12-06T21:21:48.538Z,97655.86
2018-12-06T21:24:17.456Z,97653.59
2018-12-06T21:26:46.601Z,97657.69
2018-12-06T21:29:15.509Z,97648.70
2018-12-06T21:31:44.408Z,97656.12
2018-12-06T21:34:13.716Z,97656.95
2018-12-06T21:36:43.268Z,97653.48
2018-12-06T21:39:12.195Z,97647.76
2018-12-06T21:41:41.109Z,97655.79
2018-12-06T21:44:10.008Z,97654.33
2018-12-06T21:46:38.884Z,97653.53
2018-12-06T21:49:08.180Z,97656.73
2018-12-06T21:51:37.312Z,97649.33
2018-12-06T21:54:06.584Z,97649.33
2018-12-06T21:56:35.542Z,97643.70
2018-12-06T21:59:04.886Z,97648.48
2018-12-06T22:01:33.765Z,97655.53
2018-12-06T22:04:03.031Z,97651.34
2018-12-06T22:06:31.931Z,97649.91
2018-12-06T22:09:01.319Z,97652.06
2018-12-06T22:11:30.163Z,97653.75
2018-12-06T22:13:59.030Z,97659.73
2018-12-06T22:16:27.893Z,97657.91
2018-12-06T22:18:56.752Z,97660.31
2018-12-06T22:21:25.612Z,97646.81
2018-12-06T22:23:54.486Z,97650.97
2018-12-06T22:26:23.338Z,97645.02
2018-12-06T22:28:52.180Z,97649.08
2018-12-06T22:31:21.047Z,97648.48
2018-12-06T22:33:50.011Z,97642.76
2018-12-06T22:36:18.829Z,97646.08
2018-12-06T22:38:47.687Z,97643.67
2018-12-06T22:41:16.528Z,97646.55
2018-12-06T22:43:45.629Z,97627.17
2018-12-06T22:46:14.566Z,97647.03
2018-12-06T22:48:43.428Z,97649.88
2018-12-06T22:51:12.247Z,97657.17
2018-12-06T22:53:41.111Z,97656.70
2018-12-06T22:56:10.697Z,97644.03
2018-12-06T22:58:39.575Z,97649.66
2018-12-06T23:01:10.478Z,97636.30
2018-12-06T23:03:39.339Z,97635.93
2018-12-06T23:06:08.949Z,97636.77
2018-12-06T23:08:38.274Z,97637.36
2018-12-06T23:11:07.138Z,97628.20
2018-12-06T23:13:36.030Z,97635.34
2018-12-06T23:16:05.331Z,97631.77
2018-12-06T23:18:34.199Z,97627.58
2018-12-06T23:21:03.093Z,97624.95
2018-12-06T23:23:32.028Z,97620.64
2018-12-06T23:26:00.950Z,97614.17
2018-12-06T23:28:30.267Z,97608.34
2018-12-06T23:30:59.169Z,97602.34
2018-12-06T23:33:32.013Z,97612.86
2018-12-06T23:35:58.960Z,97611.22
2018-12-06T23:38:28.271Z,97600.59
2018-12-06T23:40:57.849Z,97598.33
2018-12-06T23:43:26.772Z,97597.38
2018-12-06T23:45:55.704Z,97601.69
2018-12-06T23:48:24.600Z,97600.84
2018-12-06T23:51:00.701Z,97607.89
2018-12-06T23:53:29.783Z,97606.25
2018-12-06T23:55:58.683Z,97603.73
2018-12-06T23:58:27.579Z,97598.84
